Current Weather

Sedona

Sedona, Arizona (KSEZ)

Report from: Sunday, April 21, 2024 2:35 PM MST
Current time: Sunday, April 21, 2024 2:51 PM MST

Nearby weather – Weather history – Daily summaries
Weather forecast

Temperature27.0°C (80.6°F)
Heat index26.2°C (79.2°F)
Dew point-1.0°C (30.2°F)
Winds 4 kts (2.1 m/s, 4.6 mph) South (170°)
Visibility10 mi. (16.1 km)
Clouds Sky clear
Altimeter30.10 in.Hg (1019 mB)
Relative humidity16 %
Density altitude1,274 ft. (388 m)
Remarks Fully automated report
Automated weather observing station with precipitation discriminator
Flight conditions Visual Meteorological Conditions
Raw dataKSEZ 212135Z AUTO 17004KT 10SM CLR 27/M01 A3010 RMK AO2
An error has occurred. This application may no longer respond until reloaded. Reload 🗙